Time;durP1;ratioP1;P1;durP2;ratioP2;P2;SDS_P1;SDS_P2;PMS_P1;PMS_P2;Temp;Humidity;BMP_temperature;BMP_pressure;BME280_temperature;BME280_humidity;BME280_pressure;Samples;Min_cycle;Max_cycle;Signal;HPM_P1;HPM_P2
2022/07/29 00:01:48;;;;;;;6.93;6.30;;;;;;;;;;5032103;28;20025;-59
2022/07/29 00:04:27;;;;;;;6.55;5.88;;;;;;;;;;5032989;28;20056;-59
2022/07/29 00:06:59;;;;;;;5.57;5.07;;;;;;;;;;5032773;28;20087;-59
2022/07/29 00:09:46;;;;;;;6.95;6.30;;;;;;;;;;5032746;28;20147;-59
2022/07/29 00:12:12;;;;;;;7.80;6.95;;;;;;;;;;5030984;28;20072;-59
2022/07/29 00:14:47;;;;;;;7.43;6.05;;;;;;;;;;5046235;28;20031;-59
2022/07/29 00:17:16;;;;;;;8.02;6.10;;;;;;;;;;5052375;28;20024;-59
2022/07/29 00:19:55;;;;;;;8.73;5.75;;;;;;;;;;5052662;28;20029;-59
2022/07/29 00:22:36;;;;;;;7.18;6.40;;;;;;;;;;5051475;28;20021;-59
2022/07/29 00:25:05;;;;;;;6.57;6.00;;;;;;;;;;5051172;28;20481;-59
2022/07/29 00:27:34;;;;;;;7.15;6.45;;;;;;;;;;5050875;28;20025;-59
2022/07/29 00:30:04;;;;;;;6.80;5.90;;;;;;;;;;5050244;28;20056;-58
2022/07/29 00:32:53;;;;;;;6.20;5.60;;;;;;;;;;5052491;28;20041;-59
2022/07/29 00:38:07;;;;;;;6.60;5.90;;;;;;;;;;5052097;28;20083;-59
2022/07/29 00:40:42;;;;;;;6.45;5.82;;;;;;;;;;5050009;28;20385;-59
2022/07/29 00:43:11;;;;;;;6.70;6.10;;;;;;;;;;5029518;28;20088;-59
2022/07/29 00:46:14;;;;;;;5.90;5.32;;;;;;;;;;5050449;28;20036;-59
2022/07/29 00:48:55;;;;;;;7.32;6.63;;;;;;;;;;5053074;28;20442;-59
2022/07/29 00:51:33;;;;;;;7.30;5.88;;;;;;;;;;5051160;28;20487;-59
2022/07/29 00:54:12;;;;;;;6.95;6.25;;;;;;;;;;5052471;28;20029;-59
2022/07/29 00:56:41;;;;;;;5.38;4.90;;;;;;;;;;5051790;28;20025;-59
2022/07/29 00:59:25;;;;;;;9.68;6.30;;;;;;;;;;5052089;28;20039;-59
2022/07/29 01:01:57;;;;;;;7.97;5.20;;;;;;;;;;5049597;28;20029;-59
2022/07/29 01:04:39;;;;;;;7.78;6.28;;;;;;;;;;5052037;28;20027;-59
2022/07/29 01:07:14;;;;;;;6.35;5.72;;;;;;;;;;5052172;28;20021;-59
2022/07/29 01:09:47;;;;;;;7.38;5.72;;;;;;;;;;5051829;28;20483;-59
2022/07/29 01:12:39;;;;;;;5.75;5.25;;;;;;;;;;5051303;28;20040;-59
2022/07/29 01:15:38;;;;;;;7.00;5.82;;;;;;;;;;5034232;28;20068;-59
2022/07/29 01:18:07;;;;;;;6.18;5.57;;;;;;;;;;5031655;28;20034;-59
2022/07/29 01:21:12;;;;;;;10.83;5.80;;;;;;;;;;5029946;28;20064;-59
2022/07/29 01:23:55;;;;;;;6.03;5.43;;;;;;;;;;5012784;28;20480;-59
2022/07/29 01:26:36;;;;;;;6.05;5.38;;;;;;;;;;5030275;28;20025;-59
2022/07/29 01:29:23;;;;;;;6.32;5.60;;;;;;;;;;5035057;28;20063;-59
2022/07/29 01:32:09;;;;;;;7.43;6.30;;;;;;;;;;5034017;28;20048;-59
2022/07/29 01:37:52;;;;;;;6.18;5.40;;;;;;;;;;5037796;28;20026;-59
2022/07/29 01:40:37;;;;;;;5.35;4.85;;;;;;;;;;5034419;28;20091;-59
2022/07/29 01:46:13;;;;;;;6.77;5.63;;;;;;;;;;5035297;28;20036;-59
2022/07/29 01:48:46;;;;;;;4.68;4.28;;;;;;;;;;5020208;28;20037;-59
2022/07/29 01:51:17;;;;;;;6.57;5.25;;;;;;;;;;5034291;28;20037;-59
2022/07/29 01:54:08;;;;;;;4.85;4.10;;;;;;;;;;5034019;28;20073;-59
2022/07/29 01:56:35;;;;;;;5.53;4.50;;;;;;;;;;5034089;28;20025;-59
2022/07/29 01:59:21;;;;;;;5.45;4.85;;;;;;;;;;5035109;28;20360;-59
2022/07/29 02:02:08;;;;;;;;;;;;;;;;;;;;;
2022/07/29 02:07:34;;;;;;;4.43;4.00;;;;;;;;;;5043142;28;20475;-59
2022/07/29 02:10:03;;;;;;;5.40;4.63;;;;;;;;;;5033850;28;20152;-59
2022/07/29 02:12:32;;;;;;;6.88;4.15;;;;;;;;;;5034796;28;20495;-59
2022/07/29 02:15:14;;;;;;;5.37;4.87;;;;;;;;;;5051668;28;20025;-59
2022/07/29 02:18:10;;;;;;;5.50;4.45;;;;;;;;;;5051622;28;20283;-59
2022/07/29 02:20:47;;;;;;;4.88;4.13;;;;;;;;;;5054115;28;20033;-59
2022/07/29 02:23:35;;;;;;;4.55;4.15;;;;;;;;;;5055780;28;20056;-59
2022/07/29 02:26:11;;;;;;;4.70;4.10;;;;;;;;;;5054480;28;20387;-59
2022/07/29 02:28:53;;;;;;;5.00;4.38;;;;;;;;;;5054247;28;20029;-58
2022/07/29 02:31:23;;;;;;;4.85;4.38;;;;;;;;;;5052605;28;20029;-59
2022/07/29 02:34:02;;;;;;;5.00;4.25;;;;;;;;;;5055063;28;20033;-59
2022/07/29 02:36:32;;;;;;;4.85;3.97;;;;;;;;;;5054762;28;20037;-59
2022/07/29 02:39:22;;;;;;;5.25;4.55;;;;;;;;;;5054286;28;20036;-59
2022/07/29 02:41:53;;;;;;;5.30;4.80;;;;;;;;;;5053567;28;20086;-59
2022/07/29 02:47:41;;;;;;;5.25;4.00;;;;;;;;;;5054232;28;20483;-59
2022/07/29 02:50:20;;;;;;;5.78;5.03;;;;;;;;;;5054090;28;20025;-59
2022/07/29 02:53:13;;;;;;;6.95;5.18;;;;;;;;;;5054806;28;20486;-59
2022/07/29 02:56:05;;;;;;;5.15;4.63;;;;;;;;;;5053723;28;20029;-59
2022/07/29 02:58:42;;;;;;;7.95;5.03;;;;;;;;;;5069109;28;20558;-59
2022/07/29 03:01:19;;;;;;;7.10;5.57;;;;;;;;;;5051799;28;20383;-59
2022/07/29 03:03:52;;;;;;;7.30;5.03;;;;;;;;;;5052833;28;20395;-59
2022/07/29 03:06:21;;;;;;;5.30;4.70;;;;;;;;;;5054171;28;20021;-59
2022/07/29 03:09:10;;;;;;;;;;;;;;;;;;;;;
2022/07/29 03:11:37;;;;;;;4.70;3.95;;;;;;;;;;5051816;28;20386;-59
2022/07/29 03:14:23;;;;;;;;;;;;;;;;;;;;;
2022/07/29 03:16:52;;;;;;;5.80;5.25;;;;;;;;;;5033253;28;20030;-59
2022/07/29 03:19:31;;;;;;;5.22;4.13;;;;;;;;;;5032625;28;20073;-59
2022/07/29 03:25:19;;;;;;;7.00;4.97;;;;;;;;;;5033514;28;20063;-59
2022/07/29 03:33:39;;;;;;;4.78;4.25;;;;;;;;;;5033995;28;20033;-59
2022/07/29 03:36:13;;;;;;;5.97;4.57;;;;;;;;;;5040891;28;20371;-59
2022/07/29 03:38:49;;;;;;;5.35;4.85;;;;;;;;;;5052827;28;20028;-59
2022/07/29 03:41:15;;;;;;;5.47;4.97;;;;;;;;;;5051950;28;20065;-59
2022/07/29 03:43:42;;;;;;;6.30;4.75;;;;;;;;;;5053892;28;20033;-59
2022/07/29 03:46:29;;;;;;;5.30;4.55;;;;;;;;;;5053041;28;20086;-59
2022/07/29 03:49:16;;;;;;;5.95;4.03;;;;;;;;;;5036927;28;20053;-59
2022/07/29 03:52:07;;;;;;;5.15;4.40;;;;;;;;;;5029635;28;20116;-59
2022/07/29 03:54:37;;;;;;;5.93;4.63;;;;;;;;;;5033241;28;20045;-59
2022/07/29 03:57:22;;;;;;;5.82;5.10;;;;;;;;;;5031769;28;20017;-59
2022/07/29 03:59:58;;;;;;;5.15;4.65;;;;;;;;;;5030565;28;20122;-59
2022/07/29 04:02:31;;;;;;;5.53;4.32;;;;;;;;;;5035940;28;20025;-59
2022/07/29 04:05:05;;;;;;;5.55;4.97;;;;;;;;;;5035305;28;20029;-59
2022/07/29 04:07:34;;;;;;;5.20;4.70;;;;;;;;;;5052323;28;20056;-59
2022/07/29 04:10:16;;;;;;;5.30;4.45;;;;;;;;;;5051506;28;20072;-59
2022/07/29 04:12:46;;;;;;;4.70;3.83;;;;;;;;;;5050980;28;20363;-59
2022/07/29 04:15:28;;;;;;;5.93;4.32;;;;;;;;;;5033804;28;20033;-59
2022/07/29 04:18:06;;;;;;;4.32;3.90;;;;;;;;;;5045356;28;20044;-59
2022/07/29 04:20:35;;;;;;;5.25;4.75;;;;;;;;;;5051469;28;20470;-59
2022/07/29 04:23:25;;;;;;;4.95;3.85;;;;;;;;;;5052197;28;20025;-59
2022/07/29 04:26:00;;;;;;;4.68;4.28;;;;;;;;;;5052718;28;20027;-59
2022/07/29 04:28:34;;;;;;;5.47;4.53;;;;;;;;;;5052405;28;20029;-59
2022/07/29 04:31:00;;;;;;;4.68;4.05;;;;;;;;;;5050142;28;20037;-59
2022/07/29 04:33:39;;;;;;;4.80;4.40;;;;;;;;;;5035650;28;20057;-59
2022/07/29 04:39:11;;;;;;;4.75;4.28;;;;;;;;;;5033747;28;20044;-59
2022/07/29 04:41:50;;;;;;;5.00;4.50;;;;;;;;;;5048903;28;20124;-59
2022/07/29 04:44:20;;;;;;;3.63;3.28;;;;;;;;;;5049129;28;20064;-59
2022/07/29 04:47:01;;;;;;;5.88;4.90;;;;;;;;;;5045778;28;20029;-59
2022/07/29 04:49:34;;;;;;;4.65;3.90;;;;;;;;;;5044228;28;20132;-59
2022/07/29 04:52:34;;;;;;;4.32;3.50;;;;;;;;;;5035755;28;20033;-59
2022/07/29 04:55:00;;;;;;;3.55;2.72;;;;;;;;;;5036359;28;20036;-59
2022/07/29 04:57:49;;;;;;;4.50;4.00;;;;;;;;;;5044638;28;20082;-59
2022/07/29 05:00:27;;;;;;;4.57;3.78;;;;;;;;;;5038177;28;20383;-59
2022/07/29 05:02:59;;;;;;;10.48;4.65;;;;;;;;;;5039234;28;20124;-59
2022/07/29 05:05:25;;;;;;;4.88;4.47;;;;;;;;;;5032023;28;20029;-58
2022/07/29 05:08:17;;;;;;;;;;;;;;;;;;;;;
2022/07/29 05:10:43;;;;;;;4.90;3.08;;;;;;;;;;5041209;28;20036;-58
2022/07/29 05:13:34;;;;;;;4.55;3.45;;;;;;;;;;5051485;28;20457;-58
2022/07/29 05:16:21;;;;;;;3.67;3.20;;;;;;;;;;5052590;28;20025;-58
2022/07/29 05:19:09;;;;;;;4.38;3.25;;;;;;;;;;5052365;28;20029;-58
2022/07/29 05:21:52;;;;;;;3.40;3.05;;;;;;;;;;5051422;28;20021;-58
2022/07/29 05:24:36;;;;;;;3.67;3.35;;;;;;;;;;5052761;28;20017;-58
2022/07/29 05:27:07;;;;;;;6.40;4.28;;;;;;;;;;5052372;28;20485;-58
2022/07/29 05:29:49;;;;;;;3.78;3.00;;;;;;;;;;5052307;28;20060;-58
2022/07/29 05:32:18;;;;;;;3.92;2.50;;;;;;;;;;5052287;28;20025;-58
2022/07/29 05:34:52;;;;;;;4.00;3.00;;;;;;;;;;5037714;28;20030;-58
2022/07/29 05:37:44;;;;;;;3.47;2.83;;;;;;;;;;5032188;28;20034;-58
2022/07/29 05:40:49;;;;;;;7.68;3.22;;;;;;;;;;5031749;28;20025;-58
2022/07/29 05:43:28;;;;;;;3.50;2.72;;;;;;;;;;5033011;28;20383;-58
2022/07/29 05:46:13;;;;;;;4.10;3.03;;;;;;;;;;5032180;28;20029;-58
2022/07/29 05:49:02;;;;;;;3.60;2.83;;;;;;;;;;5029565;28;20044;-58
2022/07/29 05:51:39;;;;;;;3.30;2.88;;;;;;;;;;5038482;28;20087;-58
2022/07/29 05:54:06;;;;;;;4.05;3.17;;;;;;;;;;5030800;28;20104;-58
2022/07/29 05:56:47;;;;;;;3.10;2.53;;;;;;;;;;5032233;28;20128;-58
2022/07/29 05:59:46;;;;;;;4.85;3.15;;;;;;;;;;5031238;28;20387;-58
2022/07/29 06:02:16;;;;;;;3.78;2.78;;;;;;;;;;5037448;28;20151;-58
2022/07/29 06:04:42;;;;;;;5.07;3.13;;;;;;;;;;5047905;28;20056;-58
2022/07/29 06:07:20;;;;;;;3.10;2.40;;;;;;;;;;5032795;28;20415;-58
2022/07/29 06:09:59;;;;;;;3.70;2.97;;;;;;;;;;5030836;28;20125;-58
2022/07/29 06:12:28;;;;;;;4.10;2.90;;;;;;;;;;5031440;28;20017;-58
2022/07/29 06:14:57;;;;;;;4.63;2.58;;;;;;;;;;5032714;28;20037;-60
2022/07/29 06:17:36;;;;;;;3.60;2.33;;;;;;;;;;5053831;28;20094;-59
2022/07/29 06:20:13;;;;;;;6.03;3.50;;;;;;;;;;5050125;28;20120;-59
2022/07/29 06:22:44;;;;;;;2.80;1.92;;;;;;;;;;5053222;28;20074;-59
2022/07/29 06:25:28;;;;;;;3.65;2.00;;;;;;;;;;5054111;28;20044;-59
2022/07/29 06:28:06;;;;;;;2.55;1.88;;;;;;;;;;5054530;28;20017;-59
2022/07/29 06:31:03;;;;;;;5.13;2.40;;;;;;;;;;5053351;28;20500;-59
2022/07/29 06:33:37;;;;;;;6.10;1.98;;;;;;;;;;5045305;28;20052;-59
2022/07/29 06:39:00;;;;;;;2.40;1.50;;;;;;;;;;5034018;28;20029;-59
2022/07/29 06:44:34;;;;;;;;;;;;;;;;;;;;;
2022/07/29 06:47:14;;;;;;;3.10;2.28;;;;;;;;;;5034370;28;20037;-59
2022/07/29 06:49:40;;;;;;;1.90;1.52;;;;;;;;;;5033038;28;20061;-59
2022/07/29 06:52:34;;;;;;;2.13;1.70;;;;;;;;;;5034259;28;20029;-59
2022/07/29 06:55:12;;;;;;;2.80;2.00;;;;;;;;;;5035401;28;20021;-59
2022/07/29 06:57:57;;;;;;;3.28;2.60;;;;;;;;;;5017193;28;20344;-59
2022/07/29 07:03:21;;;;;;;3.78;2.80;;;;;;;;;;5036301;28;20105;-59
2022/07/29 07:05:56;;;;;;;3.00;2.30;;;;;;;;;;5033365;28;20048;-59
2022/07/29 07:08:37;;;;;;;3.20;2.42;;;;;;;;;;5034667;28;20030;-59
2022/07/29 07:11:15;;;;;;;3.55;2.70;;;;;;;;;;5033363;28;20091;-59
2022/07/29 07:13:44;;;;;;;3.47;2.70;;;;;;;;;;5038924;28;20072;-59
2022/07/29 07:16:20;;;;;;;3.47;2.83;;;;;;;;;;5047562;28;20045;-59
2022/07/29 07:21:48;;;;;;;3.92;3.10;;;;;;;;;;5032716;28;20560;-59
2022/07/29 07:24:20;;;;;;;3.75;2.75;;;;;;;;;;5032301;28;20022;-59
2022/07/29 07:27:01;;;;;;;4.07;3.38;;;;;;;;;;5046903;28;20033;-59
2022/07/29 07:29:41;;;;;;;4.22;3.10;;;;;;;;;;5052179;28;20033;-59
2022/07/29 07:32:09;;;;;;;6.25;3.42;;;;;;;;;;5053228;28;20482;-59
2022/07/29 07:34:37;;;;;;;5.80;3.80;;;;;;;;;;5054206;28;20044;-59
2022/07/29 07:37:14;;;;;;;8.60;3.33;;;;;;;;;;5052277;28;20131;-59
2022/07/29 07:42:36;;;;;;;3.80;3.22;;;;;;;;;;5033706;28;20125;-59
2022/07/29 07:45:06;;;;;;;4.70;3.75;;;;;;;;;;5033777;28;20017;-59
2022/07/29 07:47:51;;;;;;;4.03;3.63;;;;;;;;;;5032025;28;20091;-59
2022/07/29 07:50:24;;;;;;;4.60;3.53;;;;;;;;;;5032395;28;20029;-59
2022/07/29 07:55:49;;;;;;;3.35;2.67;;;;;;;;;;5038784;28;20375;-59
2022/07/29 07:58:16;;;;;;;4.22;3.75;;;;;;;;;;5035547;28;20025;-59
2022/07/29 08:00:42;;;;;;;4.25;3.38;;;;;;;;;;5031033;28;20075;-59
2022/07/29 08:03:12;;;;;;;4.72;3.88;;;;;;;;;;5033682;28;20108;-59
2022/07/29 08:05:43;;;;;;;6.68;3.83;;;;;;;;;;5031859;28;20036;-59
2022/07/29 08:08:27;;;;;;;6.40;3.88;;;;;;;;;;5032953;28;20025;-59
2022/07/29 08:11:00;;;;;;;4.05;3.65;;;;;;;;;;5031017;28;20041;-59
2022/07/29 08:13:38;;;;;;;4.40;3.38;;;;;;;;;;5037095;28;20032;-59
2022/07/29 08:16:22;;;;;;;4.35;3.35;;;;;;;;;;5032533;28;20041;-59
2022/07/29 08:18:56;;;;;;;3.25;2.75;;;;;;;;;;5032928;28;20107;-59
2022/07/29 08:21:25;;;;;;;4.90;3.67;;;;;;;;;;5029962;28;20037;-59
2022/07/29 08:23:52;;;;;;;4.72;4.22;;;;;;;;;;5045182;28;20119;-59
2022/07/29 08:26:22;;;;;;;3.53;3.20;;;;;;;;;;5052541;28;20025;-59
2022/07/29 08:28:50;;;;;;;6.13;3.38;;;;;;;;;;5050986;28;20410;-59
2022/07/29 08:31:31;;;;;;;4.55;3.30;;;;;;;;;;5050428;28;20052;-59
2022/07/29 08:34:03;;;;;;;4.15;3.25;;;;;;;;;;5052526;28;20029;-59
2022/07/29 08:36:33;;;;;;;4.43;3.05;;;;;;;;;;5049166;28;20459;-59
2022/07/29 08:39:12;;;;;;;8.15;3.60;;;;;;;;;;5032490;28;20586;-59
2022/07/29 08:41:41;;;;;;;6.18;4.00;;;;;;;;;;5031229;28;20057;-59
2022/07/29 08:44:10;;;;;;;4.65;3.40;;;;;;;;;;5031144;28;20030;-59
2022/07/29 08:46:45;;;;;;;6.03;4.15;;;;;;;;;;5032155;28;20517;-59
2022/07/29 08:49:26;;;;;;;6.15;4.00;;;;;;;;;;5032155;28;20464;-59
2022/07/29 08:52:01;;;;;;;4.15;3.15;;;;;;;;;;5031059;28;20092;-59
2022/07/29 08:54:28;;;;;;;4.10;3.42;;;;;;;;;;5033494;28;20036;-59
2022/07/29 08:57:26;;;;;;;4.47;3.63;;;;;;;;;;5014382;28;20025;-59
2022/07/29 09:00:04;;;;;;;5.82;3.95;;;;;;;;;;5031410;28;20029;-59
2022/07/29 09:02:39;;;;;;;6.93;3.78;;;;;;;;;;5030094;28;20180;-59
2022/07/29 09:05:20;;;;;;;4.32;3.33;;;;;;;;;;5030842;28;20120;-59
2022/07/29 09:07:55;;;;;;;6.28;3.38;;;;;;;;;;5045235;28;20126;-59
2022/07/29 09:10:25;;;;;;;3.45;3.03;;;;;;;;;;5051019;28;20024;-59
2022/07/29 09:12:52;;;;;;;4.28;3.88;;;;;;;;;;5052071;28;20026;-59
2022/07/29 09:15:29;;;;;;;4.65;3.28;;;;;;;;;;5027750;28;20030;-59
2022/07/29 09:18:01;;;;;;;4.03;2.83;;;;;;;;;;5034478;28;20021;-59
2022/07/29 09:23:29;;;;;;;3.20;2.72;;;;;;;;;;5031858;28;20076;-59
2022/07/29 09:26:08;;;;;;;4.95;3.67;;;;;;;;;;5032003;28;20053;-59
2022/07/29 09:28:34;;;;;;;4.18;3.78;;;;;;;;;;5030304;28;20025;-59
2022/07/29 09:31:09;;;;;;;3.38;3.08;;;;;;;;;;5030769;28;20029;-59
2022/07/29 09:33:42;;;;;;;4.80;3.80;;;;;;;;;;5046564;28;20395;-59
2022/07/29 09:36:11;;;;;;;6.13;3.90;;;;;;;;;;5050532;28;20113;-59
2022/07/29 09:38:43;;;;;;;5.20;3.10;;;;;;;;;;5051514;28;20036;-59
2022/07/29 09:41:13;;;;;;;4.35;3.90;;;;;;;;;;5049332;28;20056;-59
2022/07/29 09:43:53;;;;;;;7.10;3.97;;;;;;;;;;5050336;28;20390;-59
2022/07/29 09:46:43;;;;;;;3.60;3.03;;;;;;;;;;5029752;28;20496;-59
2022/07/29 09:49:29;;;;;;;4.95;3.80;;;;;;;;;;5048072;28;20037;-59
2022/07/29 09:52:43;;;;;;;7.68;4.38;;;;;;;;;;5053294;28;20311;-59
2022/07/29 09:55:13;;;;;;;5.00;3.80;;;;;;;;;;5055899;28;20494;-60
2022/07/29 09:57:45;;;;;;;4.70;4.20;;;;;;;;;;5055266;28;20025;-59
2022/07/29 10:00:17;;;;;;;6.30;4.10;;;;;;;;;;5047521;28;20152;-59
2022/07/29 10:02:52;;;;;;;4.90;3.88;;;;;;;;;;5034990;28;20041;-60
2022/07/29 10:05:39;;;;;;;4.45;4.03;;;;;;;;;;5035531;28;20024;-59
2022/07/29 10:08:07;;;;;;;5.07;4.03;;;;;;;;;;5033173;28;20068;-59
2022/07/29 10:10:37;;;;;;;5.53;4.07;;;;;;;;;;5032746;28;20261;-59
2022/07/29 10:13:07;;;;;;;5.18;4.65;;;;;;;;;;5033943;28;20487;-59
2022/07/29 10:15:40;;;;;;;5.65;4.40;;;;;;;;;;5054311;28;20386;-59
2022/07/29 10:18:19;;;;;;;4.32;3.53;;;;;;;;;;5053472;28;20475;-59
2022/07/29 10:20:46;;;;;;;4.35;3.95;;;;;;;;;;5052682;28;20446;-59
2022/07/29 10:23:23;;;;;;;5.47;3.85;;;;;;;;;;5054346;28;20024;-59
2022/07/29 10:25:49;;;;;;;6.25;4.43;;;;;;;;;;5054644;28;20048;-59
2022/07/29 10:28:18;;;;;;;6.20;4.22;;;;;;;;;;5052746;28;20043;-59
2022/07/29 10:30:52;;;;;;;4.60;3.85;;;;;;;;;;5032881;28;20112;-59
2022/07/29 10:33:36;;;;;;;9.82;4.75;;;;;;;;;;5033568;28;20391;-59
2022/07/29 10:36:12;;;;;;;5.65;4.43;;;;;;;;;;5034464;28;20030;-59
2022/07/29 10:38:56;;;;;;;4.75;3.90;;;;;;;;;;5034183;28;20304;-59
2022/07/29 10:41:34;;;;;;;4.38;3.95;;;;;;;;;;5033474;28;20601;-59
2022/07/29 10:44:04;;;;;;;6.45;4.47;;;;;;;;;;5043818;28;20436;-59
2022/07/29 10:46:35;;;;;;;5.78;3.95;;;;;;;;;;5038289;28;20040;-59
2022/07/29 10:49:07;;;;;;;7.05;4.40;;;;;;;;;;5033968;28;20029;-59
2022/07/29 10:51:57;;;;;;;6.60;4.25;;;;;;;;;;5032856;28;20076;-59
2022/07/29 10:54:42;;;;;;;4.40;4.00;;;;;;;;;;5032911;28;20025;-59
2022/07/29 10:57:18;;;;;;;4.47;4.00;;;;;;;;;;5037324;28;20494;-59
2022/07/29 10:59:49;;;;;;;3.97;3.65;;;;;;;;;;5053488;28;20032;-59
2022/07/29 11:02:34;;;;;;;5.75;3.72;;;;;;;;;;5049076;28;20033;-59
2022/07/29 11:05:01;;;;;;;7.10;4.50;;;;;;;;;;5034095;28;20552;-59
2022/07/29 11:07:30;;;;;;;6.18;4.50;;;;;;;;;;5033813;28;20083;-59
2022/07/29 11:10:15;;;;;;;5.20;3.80;;;;;;;;;;5033167;28;20117;-59
2022/07/29 11:12:41;;;;;;;6.40;4.10;;;;;;;;;;5032338;28;20029;-59
2022/07/29 11:15:09;;;;;;;4.63;3.67;;;;;;;;;;5051381;28;20017;-59
2022/07/29 11:18:06;;;;;;;;;;;;;;;;;;;;;
2022/07/29 11:20:45;;;;;;;13.18;6.90;;;;;;;;;;5051756;28;20033;-59
2022/07/29 11:23:28;;;;;;;5.65;3.75;;;;;;;;;;5052778;28;20068;-59
2022/07/29 11:26:30;;;;;;;3.47;2.72;;;;;;;;;;5052215;28;20017;-59
2022/07/29 11:29:07;;;;;;;5.00;4.05;;;;;;;;;;5053232;28;20025;-58
2022/07/29 11:31:53;;;;;;;5.55;4.35;;;;;;;;;;5037537;28;20025;-59
2022/07/29 11:34:25;;;;;;;5.45;4.75;;;;;;;;;;5025297;28;20048;-59
2022/07/29 11:37:15;;;;;;;5.20;4.70;;;;;;;;;;5033595;28;20020;-59
2022/07/29 11:39:58;;;;;;;5.70;5.13;;;;;;;;;;5031898;28;20059;-59
2022/07/29 11:42:36;;;;;;;7.07;5.82;;;;;;;;;;5033421;28;20030;-59
2022/07/29 11:45:37;;;;;;;7.82;5.20;;;;;;;;;;5051956;28;20112;-58
2022/07/29 11:48:04;;;;;;;9.73;4.68;;;;;;;;;;5052802;28;20036;-59
2022/07/29 11:50:49;;;;;;;10.15;4.78;;;;;;;;;;5051797;28;20025;-59
2022/07/29 11:53:22;;;;;;;5.47;4.68;;;;;;;;;;5052970;28;20021;-59
2022/07/29 11:56:11;;;;;;;5.63;4.63;;;;;;;;;;5053096;28;20090;-59
2022/07/29 11:58:49;;;;;;;5.22;4.70;;;;;;;;;;5032950;28;20309;-59
2022/07/29 12:01:34;;;;;;;5.35;4.72;;;;;;;;;;5032224;28;20523;-59
2022/07/29 12:04:16;;;;;;;5.65;5.05;;;;;;;;;;5032700;28;20375;-59
2022/07/29 12:09:54;;;;;;;7.70;4.75;;;;;;;;;;5047259;28;20041;-59
2022/07/29 12:15:34;;;;;;;5.22;4.00;;;;;;;;;;5026009;28;20041;-59
2022/07/29 12:18:15;;;;;;;4.07;3.67;;;;;;;;;;5031749;28;20052;-59
2022/07/29 12:24:11;;;;;;;5.32;3.78;;;;;;;;;;5049687;28;20612;-59
2022/07/29 12:29:42;;;;;;;5.45;4.22;;;;;;;;;;5050020;28;20045;-59
2022/07/29 12:32:14;;;;;;;5.38;4.32;;;;;;;;;;5040818;28;20434;-59
2022/07/29 12:34:44;;;;;;;4.60;4.20;;;;;;;;;;5031111;28;20096;-59
2022/07/29 12:37:10;;;;;;;6.32;4.13;;;;;;;;;;5031791;28;20041;-59
2022/07/29 12:39:42;;;;;;;5.97;5.28;;;;;;;;;;5051344;28;20033;-59
2022/07/29 12:42:30;;;;;;;6.68;5.15;;;;;;;;;;5051743;28;20031;-59
2022/07/29 12:45:02;;;;;;;4.75;4.22;;;;;;;;;;5052619;28;20044;-59
2022/07/29 12:47:48;;;;;;;6.43;5.00;;;;;;;;;;5052509;28;20032;-59
2022/07/29 12:50:25;;;;;;;5.63;5.00;;;;;;;;;;5051467;28;20479;-59
2022/07/29 12:52:58;;;;;;;8.18;5.50;;;;;;;;;;5033542;28;20498;-59
2022/07/29 12:58:58;;;;;;;6.88;5.15;;;;;;;;;;5031850;28;20640;-59
2022/07/29 13:01:48;;;;;;;5.65;4.63;;;;;;;;;;5020376;28;20657;-58
2022/07/29 13:04:36;;;;;;;10.60;5.57;;;;;;;;;;5015194;28;20461;-59
2022/07/29 13:07:11;;;;;;;5.57;4.75;;;;;;;;;;5032061;28;20026;-59
2022/07/29 13:09:48;;;;;;;5.32;4.82;;;;;;;;;;5031894;28;20463;-59
2022/07/29 13:12:23;;;;;;;6.35;5.40;;;;;;;;;;5029650;28;20034;-59
2022/07/29 13:15:01;;;;;;;8.13;4.97;;;;;;;;;;5047396;28;20032;-59
2022/07/29 13:17:43;;;;;;;5.65;5.07;;;;;;;;;;5050657;28;20303;-59
2022/07/29 13:20:30;;;;;;;6.25;5.65;;;;;;;;;;5046159;28;20128;-59
2022/07/29 13:23:02;;;;;;;6.60;6.00;;;;;;;;;;5037741;28;20092;-59
2022/07/29 13:25:31;;;;;;;6.78;5.95;;;;;;;;;;5038550;28;20026;-59
2022/07/29 13:28:10;;;;;;;7.38;6.72;;;;;;;;;;5038312;28;20448;-59
2022/07/29 13:31:01;;;;;;;8.73;7.30;;;;;;;;;;5036205;28;20063;-59
2022/07/29 13:33:43;;;;;;;8.45;6.97;;;;;;;;;;5038566;28;20396;-59
2022/07/29 13:36:15;;;;;;;8.20;7.07;;;;;;;;;;5041241;28;20033;-59
2022/07/29 13:39:25;;;;;;;7.28;6.43;;;;;;;;;;5058383;28;20154;-59
2022/07/29 13:42:02;;;;;;;7.55;6.85;;;;;;;;;;5053865;28;20021;-58
2022/07/29 13:44:31;;;;;;;6.93;6.22;;;;;;;;;;5058211;28;20060;-59
2022/07/29 13:47:16;;;;;;;7.88;6.78;;;;;;;;;;5058212;28;20085;-59
2022/07/29 13:49:53;;;;;;;7.03;6.32;;;;;;;;;;5053864;28;20420;-59
2022/07/29 13:52:43;;;;;;;7.38;6.68;;;;;;;;;;5044026;28;20454;-58
2022/07/29 13:55:14;;;;;;;9.55;8.63;;;;;;;;;;5058308;28;20234;-59
2022/07/29 13:57:50;;;;;;;8.48;7.68;;;;;;;;;;5056872;28;20075;-59
2022/07/29 14:00:39;;;;;;;8.55;7.72;;;;;;;;;;5056966;28;20029;-59
2022/07/29 14:03:24;;;;;;;9.93;8.95;;;;;;;;;;5058019;28;20029;-59
2022/07/29 14:05:53;;;;;;;10.77;8.38;;;;;;;;;;5055426;28;20062;-59
2022/07/29 14:08:32;;;;;;;9.45;8.55;;;;;;;;;;5037874;28;20440;-59
2022/07/29 14:11:01;;;;;;;11.23;10.05;;;;;;;;;;5036131;28;20393;-59
2022/07/29 14:13:28;;;;;;;9.55;8.75;;;;;;;;;;5036335;28;20379;-58
2022/07/29 14:16:00;;;;;;;10.60;9.70;;;;;;;;;;5039981;28;20455;-59
2022/07/29 14:18:42;;;;;;;11.27;9.60;;;;;;;;;;5042176;28;20027;-59
2022/07/29 14:21:17;;;;;;;10.23;9.15;;;;;;;;;;5046217;28;20032;-59
2022/07/29 14:23:54;;;;;;;10.85;9.30;;;;;;;;;;5037805;28;20156;-59
2022/07/29 14:26:36;;;;;;;9.95;8.95;;;;;;;;;;5056659;28;20021;-58
2022/07/29 14:29:16;;;;;;;10.23;9.23;;;;;;;;;;5037816;28;20454;-59
2022/07/29 14:31:43;;;;;;;;;;;;;;;;;;5037754;28;20109;-59
2022/07/29 14:34:22;;;;;;;;;;;;;;;;;;;;;
2022/07/29 14:37:12;;;;;;;11.73;10.40;;;;;;;;;;5034637;28;20033;-59
2022/07/29 14:39:59;;;;;;;11.18;10.18;;;;;;;;;;5050381;28;20104;-59
2022/07/29 14:42:28;;;;;;;10.32;9.30;;;;;;;;;;5074071;28;20029;-59
2022/07/29 14:45:00;;;;;;;9.93;9.00;;;;;;;;;;5073786;28;20044;-59
2022/07/29 14:47:44;;;;;;;11.52;10.13;;;;;;;;;;5061764;28;20029;-59
2022/07/29 14:50:26;;;;;;;10.02;9.07;;;;;;;;;;5045008;28;20030;-59
2022/07/29 14:52:52;;;;;;;11.93;10.77;;;;;;;;;;5035118;28;20117;-59
2022/07/29 14:55:24;;;;;;;12.60;11.38;;;;;;;;;;5034687;28;20033;-59
2022/07/29 14:58:00;;;;;;;11.55;10.38;;;;;;;;;;5054767;28;20095;-58
2022/07/29 15:00:32;;;;;;;11.77;10.23;;;;;;;;;;5052832;28;20051;-59
2022/07/29 15:03:04;;;;;;;14.75;11.35;;;;;;;;;;5052088;28;20574;-59
2022/07/29 15:05:36;;;;;;;12.48;10.88;;;;;;;;;;5052594;28;20525;-59
2022/07/29 15:08:07;;;;;;;12.18;10.98;;;;;;;;;;5044046;28;20068;-59
2022/07/29 15:10:36;;;;;;;11.95;10.85;;;;;;;;;;5042459;28;20451;-59
2022/07/29 15:13:19;;;;;;;11.80;10.70;;;;;;;;;;5040237;28;20075;-59
2022/07/29 15:16:09;;;;;;;10.85;9.85;;;;;;;;;;5036280;28;20525;-59
2022/07/29 15:18:59;;;;;;;11.02;10.13;;;;;;;;;;5042483;28;20037;-59
2022/07/29 15:21:28;;;;;;;12.30;11.20;;;;;;;;;;5032724;28;20033;-59
2022/07/29 15:23:58;;;;;;;10.15;9.20;;;;;;;;;;5037081;28;20047;-59
2022/07/29 15:29:27;;;;;;;10.20;9.23;;;;;;;;;;5043998;28;20041;-59
2022/07/29 15:32:02;;;;;;;8.90;8.00;;;;;;;;;;5038352;28;20041;-58
2022/07/29 15:34:34;;;;;;;9.02;8.13;;;;;;;;;;5034080;28;20033;-59
2022/07/29 15:37:07;;;;;;;8.18;7.50;;;;;;;;;;5040929;28;20036;-59
2022/07/29 15:39:59;;;;;;;7.97;7.25;;;;;;;;;;5041760;28;20056;-59
2022/07/29 15:42:53;;;;;;;10.43;6.57;;;;;;;;;;5046906;28;20025;-59
2022/07/29 15:45:31;;;;;;;7.40;6.70;;;;;;;;;;5042636;28;20040;-59
2022/07/29 15:48:05;;;;;;;7.15;6.32;;;;;;;;;;5040260;28;20550;-58
2022/07/29 15:50:33;;;;;;;6.85;6.18;;;;;;;;;;5031122;28;20076;-59
2022/07/29 15:53:09;;;;;;;7.93;6.22;;;;;;;;;;5033755;28;20028;-59
2022/07/29 15:55:53;;;;;;;6.82;6.15;;;;;;;;;;5034687;28;20029;-59
2022/07/29 15:58:32;;;;;;;;;;;;;;;;;;;;;
2022/07/29 16:01:07;;;;;;;6.55;5.95;;;;;;;;;;5041890;28;20066;-59
2022/07/29 16:04:03;;;;;;;8.18;6.78;;;;;;;;;;5042545;28;20494;-59
2022/07/29 16:06:33;;;;;;;7.18;6.05;;;;;;;;;;5038418;28;20041;-59
2022/07/29 16:09:02;;;;;;;7.68;6.90;;;;;;;;;;5043891;28;20037;-58
2022/07/29 16:11:37;;;;;;;6.35;5.75;;;;;;;;;;5036049;28;20045;-58
2022/07/29 16:14:04;;;;;;;6.57;5.95;;;;;;;;;;5048532;28;20079;-59
2022/07/29 16:16:34;;;;;;;7.53;6.70;;;;;;;;;;5045345;28;20040;-59
2022/07/29 16:19:13;;;;;;;;;;;;;;;;;;;;;
2022/07/29 16:21:40;;;;;;;9.70;6.60;;;;;;;;;;5037978;28;20915;-59
2022/07/29 16:24:20;;;;;;;6.85;6.25;;;;;;;;;;5035572;28;20043;-59
2022/07/29 16:26:53;;;;;;;;;;;;;;;;;;5045598;28;20047;-59
2022/07/29 16:29:25;;;;;;;13.30;7.10;;;;;;;;;;5039783;28;19991;-59
2022/07/29 16:31:57;;;;;;;8.02;7.32;;;;;;;;;;5048421;28;21784;-59
2022/07/29 16:34:29;;;;;;;8.25;7.05;;;;;;;;;;5046876;28;20025;-59
2022/07/29 16:37:04;;;;;;;10.88;7.53;;;;;;;;;;5046884;28;20037;-59
2022/07/29 16:39:42;;;;;;;15.95;8.48;;;;;;;;;;5044589;28;20462;-59
2022/07/29 16:42:19;;;;;;;7.90;6.95;;;;;;;;;;5042179;28;20037;-59
2022/07/29 16:44:55;;;;;;;8.35;7.55;;;;;;;;;;5036422;28;20029;-59
2022/07/29 16:47:36;;;;;;;10.25;8.82;;;;;;;;;;5045259;28;20402;-59
2022/07/29 16:50:04;;;;;;;;;;;;;;;;;;5039572;28;20057;-59
2022/07/29 16:52:39;;;;;;;9.05;8.07;;;;;;;;;;5044878;28;20012;-59
2022/07/29 16:55:12;;;;;;;8.90;8.10;;;;;;;;;;5040952;28;20033;-59
2022/07/29 16:57:59;;;;;;;9.18;8.30;;;;;;;;;;5036917;28;20064;-59